Time;durP1;ratioP1;P1;durP2;ratioP2;P2;SDS_P1;SDS_P2;PMS_P1;PMS_P2;Temp;Humidity;BMP_temperature;BMP_pressure;BME280_temperature;BME280_humidity;BME280_pressure;Samples;Min_cycle;Max_cycle;Signal;HPM_P1;HPM_P2
2023/08/09 00:01:00;;;;;;;4.50;2.15;;;19.60;99.90;;;;;;4591979;19;20043;-30
2023/08/09 00:02:40;;;;;;;2.78;2.30;;;19.60;99.90;;;;;;4591809;19;20015;-26
2023/08/09 00:04:13;;;;;;;3.20;2.30;;;19.60;99.90;;;;;;4592227;19;20324;-28
2023/08/09 00:06:04;;;;;;;3.88;1.90;;;19.60;99.90;;;;;;4591162;19;20021;-30
2023/08/09 00:07:35;;;;;;;3.55;1.83;;;19.60;99.90;;;;;;4590386;19;20031;-25
2023/08/09 00:09:06;;;;;;;4.40;2.20;;;19.60;99.90;;;;;;4590683;19;20002;-27
2023/08/09 00:10:39;;;;;;;4.65;2.33;;;19.60;99.90;;;;;;4590927;19;20011;-28
2023/08/09 00:12:11;;;;;;;;;;;19.60;99.90;;;;;;4592077;19;20018;-32
2023/08/09 00:13:42;;;;;;;3.00;2.10;;;19.60;99.90;;;;;;4591436;19;19926;-29
2023/08/09 00:15:14;;;;;;;4.25;2.78;;;19.60;99.90;;;;;;4589945;19;20006;-29
2023/08/09 00:16:46;;;;;;;4.78;2.00;;;19.60;99.90;;;;;;4591111;19;20039;-28
2023/08/09 00:18:17;;;;;;;3.63;2.30;;;19.60;99.90;;;;;;4591121;19;20010;-26
2023/08/09 00:19:50;;;;;;;3.58;2.20;;;19.60;99.90;;;;;;4591228;19;20010;-26
2023/08/09 00:21:23;;;;;;;4.10;2.70;;;19.60;99.90;;;;;;4590348;19;20010;-27
2023/08/09 00:22:54;;;;;;;3.33;2.17;;;19.60;99.90;;;;;;4591875;19;20028;-26
2023/08/09 00:24:26;;;;;;;3.90;2.40;;;19.60;99.90;;;;;;4589724;19;20066;-26
2023/08/09 00:26:00;;;;;;;4.90;2.33;;;19.60;99.90;;;;;;4589774;19;20018;-28
2023/08/09 00:27:33;;;;;;;5.35;2.22;;;19.50;99.90;;;;;;4590934;19;20002;-26
2023/08/09 00:29:05;;;;;;;3.65;2.67;;;19.50;99.90;;;;;;4590662;19;20015;-29
2023/08/09 00:30:37;;;;;;;5.57;2.80;;;19.60;99.90;;;;;;4589917;19;20014;-26
2023/08/09 00:32:11;;;;;;;3.33;2.08;;;19.60;99.90;;;;;;4591340;19;20015;-28
2023/08/09 00:33:44;;;;;;;3.75;2.50;;;19.50;99.90;;;;;;4589684;19;20386;-26
2023/08/09 00:35:16;;;;;;;4.72;2.95;;;19.50;99.90;;;;;;4590073;19;20010;-28
2023/08/09 00:36:48;;;;;;;3.70;2.80;;;19.50;99.90;;;;;;4590952;19;20062;-26
2023/08/09 00:38:20;;;;;;;3.97;2.38;;;19.50;99.90;;;;;;4589882;19;20370;-26
2023/08/09 00:39:51;;;;;;;;;;;19.60;99.90;;;;;;4591752;19;20018;-26
2023/08/09 00:41:22;;;;;;;5.60;2.77;;;19.50;99.90;;;;;;4590543;19;19922;-29
2023/08/09 00:42:58;;;;;;;3.47;2.30;;;19.60;99.90;;;;;;4590787;19;20430;-29
2023/08/09 00:44:29;;;;;;;3.97;2.40;;;19.50;99.90;;;;;;4589662;19;20021;-31
2023/08/09 00:46:00;;;;;;;7.07;2.13;;;19.50;99.90;;;;;;4590679;19;20069;-28
2023/08/09 00:47:34;;;;;;;5.50;2.83;;;19.50;99.90;;;;;;4588595;19;20014;-29
2023/08/09 00:49:07;;;;;;;3.80;2.78;;;19.50;99.90;;;;;;4589254;19;20026;-31
2023/08/09 00:50:39;;;;;;;6.15;2.70;;;19.50;99.90;;;;;;4589643;19;20454;-28
2023/08/09 00:52:10;;;;;;;3.47;2.50;;;19.50;99.90;;;;;;4591071;19;20029;-30
2023/08/09 00:53:42;;;;;;;3.83;2.42;;;19.50;99.90;;;;;;4588921;19;20018;-28
2023/08/09 00:55:14;;;;;;;4.40;2.33;;;19.50;99.90;;;;;;4589407;19;20017;-26
2023/08/09 00:56:46;;;;;;;4.15;2.38;;;19.50;99.90;;;;;;4589407;19;20100;-26
2023/08/09 00:58:17;;;;;;;3.60;2.40;;;19.50;99.90;;;;;;4589501;19;20014;-27
2023/08/09 00:59:49;;;;;;;4.82;2.38;;;19.50;99.90;;;;;;4590109;19;20017;-29
2023/08/09 01:01:21;;;;;;;3.58;2.47;;;19.50;99.90;;;;;;4589202;19;20018;-26
2023/08/09 01:02:52;;;;;;;4.80;2.45;;;19.50;99.90;;;;;;4590420;19;20017;-29
2023/08/09 01:04:24;;;;;;;3.10;1.98;;;19.50;99.90;;;;;;4589005;19;20010;-27
2023/08/09 01:06:24;;;;;;;3.50;2.78;;;19.50;99.90;;;;;;4589088;19;20546;-30
2023/08/09 01:08:20;;;;;;;3.22;2.10;;;19.50;99.90;;;;;;4589186;19;20023;-30
2023/08/09 01:10:21;;;;;;;3.75;2.33;;;19.50;99.90;;;;;;4587364;19;20053;-28
2023/08/09 01:11:54;;;;;;;3.60;2.20;;;19.50;99.90;;;;;;4587699;19;20018;-30
2023/08/09 01:13:26;;;;;;;5.28;3.38;;;19.50;99.90;;;;;;4588227;19;20022;-26
2023/08/09 01:14:59;;;;;;;4.20;2.20;;;19.50;99.90;;;;;;4588126;19;20094;-30
2023/08/09 01:16:32;;;;;;;3.13;2.25;;;19.50;99.90;;;;;;4587858;19;20010;-31
2023/08/09 01:18:05;;;;;;;3.63;2.53;;;19.50;99.90;;;;;;4587961;19;20014;-29
2023/08/09 01:19:47;;;;;;;3.08;2.10;;;19.50;99.90;;;;;;4588104;19;20036;-30
2023/08/09 01:21:18;;;;;;;;;;;19.50;99.90;;;;;;4588538;19;20011;-31
2023/08/09 01:22:56;;;;;;;3.42;2.28;;;19.50;99.90;;;;;;4587683;19;19921;-26
2023/08/09 01:24:27;;;;;;;3.58;1.95;;;19.50;99.90;;;;;;4587818;19;20015;-26
2023/08/09 01:25:58;;;;;;;5.15;2.38;;;19.40;99.90;;;;;;4588332;19;20003;-26
2023/08/09 01:27:31;;;;;;;3.10;2.03;;;19.40;99.90;;;;;;4587651;19;20014;-26
2023/08/09 01:29:02;;;;;;;3.40;2.28;;;19.40;99.90;;;;;;4587798;19;20038;-26
2023/08/09 01:30:35;;;;;;;4.15;2.17;;;19.50;99.90;;;;;;4585507;19;20006;-26
2023/08/09 01:32:06;;;;;;;2.78;2.20;;;19.50;99.90;;;;;;4588140;19;20372;-32
2023/08/09 01:33:38;;;;;;;3.42;1.85;;;19.40;99.90;;;;;;4589067;19;20090;-26
2023/08/09 01:35:10;;;;;;;4.15;1.90;;;19.40;99.90;;;;;;4591940;19;20055;-29
2023/08/09 01:36:42;;;;;;;3.30;2.00;;;19.50;99.90;;;;;;4592566;19;20384;-25
2023/08/09 01:38:19;;;;;;;3.25;2.22;;;19.50;99.90;;;;;;4592665;19;20503;-26
2023/08/09 01:39:50;;;;;;;3.28;2.10;;;19.50;99.90;;;;;;4592146;19;20124;-26
2023/08/09 01:41:24;;;;;;;3.70;2.15;;;19.50;99.90;;;;;;4592059;19;20006;-25
2023/08/09 01:42:56;;;;;;;3.58;1.85;;;19.50;99.90;;;;;;4592580;19;20011;-26
2023/08/09 01:44:27;;;;;;;4.05;2.22;;;19.40;99.90;;;;;;4592908;19;20470;-26
2023/08/09 01:45:59;;;;;;;4.38;2.80;;;19.40;99.90;;;;;;4591985;19;20534;-26
2023/08/09 01:47:30;;;;;;;3.97;2.38;;;19.50;99.90;;;;;;4591311;19;20017;-25
2023/08/09 01:49:11;;;;;;;3.75;2.20;;;19.40;99.90;;;;;;4594399;19;20334;-26
2023/08/09 01:50:43;;;;;;;3.75;2.17;;;19.40;99.90;;;;;;4591670;19;20037;-30
2023/08/09 01:52:15;;;;;;;3.88;1.90;;;19.40;99.90;;;;;;4593682;19;20037;-29
2023/08/09 01:53:46;;;;;;;3.35;2.25;;;19.40;99.90;;;;;;4593664;19;20014;-29
2023/08/09 01:55:19;;;;;;;3.47;1.90;;;19.40;99.90;;;;;;4594540;19;20447;-26
2023/08/09 01:56:51;;;;;;;2.67;1.73;;;19.40;99.90;;;;;;4593468;19;20029;-26
2023/08/09 01:58:25;;;;;;;2.40;1.63;;;19.40;99.90;;;;;;4593470;19;20011;-28
2023/08/09 02:00:08;;;;;;;;;;;19.40;99.90;;;;;;4594119;19;20355;-28
2023/08/09 02:27:26;;;;;;;;;;;19.30;99.90;;;;;;4593546;19;19994;-32
2023/08/09 02:28:58;;;;;;;3.72;1.70;;;19.30;99.90;;;;;;4592557;19;20256;-28
2023/08/09 02:30:30;;;;;;;3.38;1.63;;;19.40;99.90;;;;;;4591499;19;20003;-26
2023/08/09 02:32:02;;;;;;;3.03;1.65;;;19.30;99.90;;;;;;4593003;19;20438;-27
2023/08/09 02:33:33;;;;;;;3.00;1.92;;;19.30;99.90;;;;;;4592854;19;20021;-28
2023/08/09 02:35:05;;;;;;;2.92;1.60;;;19.40;99.90;;;;;;4592687;19;20017;-26
2023/08/09 02:36:37;;;;;;;3.92;1.70;;;19.40;99.90;;;;;;4592851;19;19999;-26
2023/08/09 02:38:10;;;;;;;2.13;1.42;;;19.40;99.90;;;;;;4593088;19;20017;-30
2023/08/09 02:39:42;;;;;;;2.65;2.03;;;19.40;99.90;;;;;;4593261;19;20078;-27
2023/08/09 02:41:13;;;;;;;3.33;1.70;;;19.30;99.90;;;;;;4593360;19;20014;-29
2023/08/09 02:42:47;;;;;;;2.97;1.50;;;19.30;99.90;;;;;;4592731;19;20006;-30
2023/08/09 02:44:19;;;;;;;3.30;1.85;;;19.30;99.90;;;;;;4590970;19;20066;-30
2023/08/09 02:45:50;;;;;;;4.20;2.13;;;19.30;99.90;;;;;;4592813;19;20027;-29
2023/08/09 02:47:21;;;;;;;4.05;1.75;;;19.30;99.90;;;;;;4592021;19;20031;-26
2023/08/09 02:48:52;;;;;;;3.55;2.03;;;19.30;99.90;;;;;;4593240;19;20011;-26
2023/08/09 02:50:23;;;;;;;3.78;1.73;;;19.20;99.90;;;;;;4591738;19;20011;-26
2023/08/09 02:51:55;;;;;;;5.97;1.88;;;19.30;99.90;;;;;;4593229;19;20348;-26
2023/08/09 02:53:56;;;;;;;3.83;1.73;;;19.20;99.90;;;;;;4591775;19;20002;-26
2023/08/09 02:55:28;;;;;;;2.65;1.48;;;19.20;99.90;;;;;;4592405;19;20013;-31
2023/08/09 02:57:00;;;;;;;3.78;1.60;;;19.20;99.90;;;;;;4593173;19;20459;-28
2023/08/09 02:58:31;;;;;;;3.97;1.77;;;19.20;99.90;;;;;;4592816;19;20015;-30
2023/08/09 03:00:04;;;;;;;4.45;1.80;;;19.20;99.90;;;;;;4590412;19;20010;-33
2023/08/09 03:01:35;;;;;;;2.78;1.50;;;19.20;99.90;;;;;;4592398;19;20040;-27
2023/08/09 03:03:07;;;;;;;3.08;1.58;;;19.20;99.90;;;;;;4592598;19;20070;-30
2023/08/09 03:04:39;;;;;;;2.75;1.70;;;19.20;99.90;;;;;;4592916;19;20516;-26
2023/08/09 03:06:11;;;;;;;2.97;1.52;;;19.20;99.90;;;;;;4591666;19;20029;-26
2023/08/09 03:07:43;;;;;;;4.10;2.10;;;19.20;99.90;;;;;;4592351;19;20012;-29
2023/08/09 03:09:14;;;;;;;2.70;1.52;;;19.20;99.90;;;;;;4592510;19;20006;-26
2023/08/09 03:10:46;;;;;;;2.97;1.50;;;19.20;99.90;;;;;;4591312;19;20019;-30
2023/08/09 03:12:18;;;;;;;2.78;1.33;;;19.20;99.90;;;;;;4591900;19;19999;-27
2023/08/09 03:13:51;;;;;;;2.42;1.73;;;19.20;99.90;;;;;;4591785;19;20358;-25
2023/08/09 03:15:24;;;;;;;2.47;1.65;;;19.20;99.90;;;;;;4591228;19;20018;-26
2023/08/09 03:16:56;;;;;;;5.90;2.17;;;19.20;99.90;;;;;;4592102;19;20015;-26
2023/08/09 03:18:26;;;;;;;;;;;19.20;99.90;;;;;;4594316;19;20010;-26
2023/08/09 03:19:58;;;;;;;2.58;1.50;;;19.30;99.90;;;;;;4591756;19;20331;-26
2023/08/09 03:21:33;;;;;;;4.68;1.90;;;19.30;99.90;;;;;;4591142;19;20010;-26
2023/08/09 03:23:08;;;;;;;2.90;1.80;;;19.30;99.90;;;;;;4591301;19;20014;-27
2023/08/09 03:24:40;;;;;;;3.55;1.90;;;19.30;99.90;;;;;;4592238;19;20032;-26
2023/08/09 03:26:11;;;;;;;2.65;1.90;;;19.30;99.90;;;;;;4592914;19;20003;-26
2023/08/09 03:27:42;;;;;;;3.13;1.67;;;19.30;99.90;;;;;;4591275;19;20503;-30
2023/08/09 03:29:14;;;;;;;3.20;1.77;;;19.30;99.90;;;;;;4592044;19;20025;-31
2023/08/09 03:30:46;;;;;;;3.58;1.70;;;19.30;99.90;;;;;;4591299;19;20489;-29
2023/08/09 03:32:20;;;;;;;2.50;1.55;;;19.40;99.90;;;;;;4592135;19;20337;-31
2023/08/09 03:33:52;;;;;;;2.17;1.38;;;19.30;99.90;;;;;;4591979;19;20483;-30
2023/08/09 03:35:25;;;;;;;3.65;1.77;;;19.30;99.90;;;;;;4592088;19;20019;-28
2023/08/09 03:36:57;;;;;;;2.88;1.85;;;19.30;99.90;;;;;;4591242;19;20397;-28
2023/08/09 03:38:30;;;;;;;5.70;2.10;;;19.30;99.90;;;;;;4590628;19;20017;-30
2023/08/09 03:40:04;;;;;;;3.03;1.40;;;19.30;99.90;;;;;;4591647;19;20010;-26
2023/08/09 03:41:37;;;;;;;3.38;1.70;;;19.30;99.90;;;;;;4592276;19;20018;-27
2023/08/09 03:43:08;;;;;;;2.58;1.75;;;19.30;99.90;;;;;;4591908;19;20014;-26
2023/08/09 03:44:40;;;;;;;3.22;1.50;;;19.30;99.90;;;;;;4590530;19;20033;-26
2023/08/09 03:46:11;;;;;;;3.05;1.70;;;19.30;99.90;;;;;;4590940;19;20011;-26
2023/08/09 03:47:43;;;;;;;;;;;19.30;99.90;;;;;;4592623;19;20018;-24
2023/08/09 03:49:15;;;;;;;2.67;1.70;;;19.40;99.90;;;;;;4592686;19;20005;-29
2023/08/09 03:50:47;;;;;;;2.90;1.80;;;19.40;99.90;;;;;;4592665;19;20543;-26
2023/08/09 03:54:08;;;;;;;2.45;1.50;;;19.50;99.90;;;;;;4591201;19;19970;-26
2023/08/09 03:55:42;;;;;;;4.68;1.90;;;19.60;99.90;;;;;;4592396;19;20479;-25
2023/08/09 03:57:14;;;;;;;4.97;2.15;;;19.60;99.90;;;;;;4590198;19;20014;-29
2023/08/09 03:58:45;;;;;;;2.55;1.73;;;19.60;99.90;;;;;;4593074;19;20015;-29
2023/08/09 04:00:22;;;;;;;2.60;1.80;;;19.70;99.90;;;;;;4593438;19;20033;-26
2023/08/09 04:01:55;;;;;;;2.80;1.58;;;19.80;99.90;;;;;;4592924;19;20478;-26
2023/08/09 04:03:27;;;;;;;2.88;1.90;;;19.80;99.90;;;;;;4593881;19;20017;-30
2023/08/09 04:05:00;;;;;;;3.90;1.65;;;19.90;99.90;;;;;;4592006;19;20018;-26
2023/08/09 04:06:32;;;;;;;3.17;1.63;;;19.90;99.90;;;;;;4592738;19;20043;-27
2023/08/09 04:08:06;;;;;;;3.97;2.10;;;19.90;99.90;;;;;;4592682;19;20010;-26
2023/08/09 04:09:38;;;;;;;3.35;1.95;;;19.80;99.90;;;;;;4590388;19;20011;-26
2023/08/09 04:11:10;;;;;;;3.83;1.73;;;19.80;99.90;;;;;;4591654;19;20106;-29
2023/08/09 04:12:41;;;;;;;3.13;2.08;;;19.80;99.90;;;;;;4591362;19;20010;-29
2023/08/09 04:14:12;;;;;;;3.08;2.03;;;19.90;99.90;;;;;;4593857;19;20006;-26
2023/08/09 04:15:45;;;;;;;4.50;1.80;;;19.80;99.90;;;;;;4592053;19;20086;-28
2023/08/09 04:17:17;;;;;;;3.72;2.08;;;19.90;99.90;;;;;;4592557;19;20007;-30
2023/08/09 04:18:48;;;;;;;5.13;1.70;;;19.80;99.90;;;;;;4592732;19;20021;-28
2023/08/09 04:20:22;;;;;;;3.08;1.70;;;19.80;99.90;;;;;;4590724;19;20015;-27
2023/08/09 04:21:57;;;;;;;3.45;1.65;;;19.90;99.90;;;;;;4587959;19;20018;-28
2023/08/09 04:23:29;;;;;;;2.67;1.80;;;19.90;99.90;;;;;;4592182;19;20021;-26
2023/08/09 04:25:00;;;;;;;4.95;1.70;;;19.90;99.90;;;;;;4592296;19;20478;-26
2023/08/09 04:26:31;;;;;;;3.33;1.98;;;19.90;99.90;;;;;;4591630;19;20022;-29
2023/08/09 04:28:03;;;;;;;4.85;1.90;;;19.80;99.90;;;;;;4592015;19;20062;-31
2023/08/09 04:29:35;;;;;;;;;;;19.80;99.90;;;;;;4593353;19;20015;-26
2023/08/09 04:31:06;;;;;;;3.25;1.50;;;19.80;99.90;;;;;;4591498;19;19922;-30
2023/08/09 04:32:39;;;;;;;2.60;1.60;;;19.80;99.90;;;;;;4589619;19;20081;-25
2023/08/09 04:34:11;;;;;;;4.18;1.42;;;19.80;99.90;;;;;;4589922;19;20022;-28
2023/08/09 04:35:43;;;;;;;2.95;1.45;;;19.80;99.90;;;;;;4590085;19;20037;-27
2023/08/09 04:37:15;;;;;;;2.13;1.40;;;19.80;99.90;;;;;;4590122;19;20026;-25
2023/08/09 04:38:48;;;;;;;3.70;2.10;;;19.80;99.90;;;;;;4590583;19;20363;-31
2023/08/09 04:40:20;;;;;;;3.28;1.60;;;19.90;99.90;;;;;;4590819;19;20014;-30
2023/08/09 04:41:51;;;;;;;2.25;1.30;;;19.90;99.90;;;;;;4591176;19;20007;-26
2023/08/09 04:43:22;;;;;;;2.60;1.58;;;20.00;99.90;;;;;;4589867;19;20014;-27
2023/08/09 04:44:54;;;;;;;3.60;1.85;;;20.10;99.90;;;;;;4589477;19;20397;-28
2023/08/09 04:46:25;;;;;;;3.80;1.67;;;20.10;99.90;;;;;;4590624;19;20017;-29
2023/08/09 04:47:58;;;;;;;3.08;1.42;;;20.10;99.90;;;;;;4590062;19;20011;-24
2023/08/09 04:49:31;;;;;;;2.65;1.50;;;20.20;99.90;;;;;;4590720;19;20354;-29
2023/08/09 04:51:02;;;;;;;2.58;1.60;;;20.30;99.90;;;;;;4590245;19;20022;-30
2023/08/09 04:52:42;;;;;;;2.50;1.55;;;20.30;99.90;;;;;;4590503;19;20007;-26
2023/08/09 04:54:12;;;;;;;3.53;1.40;;;20.40;99.90;;;;;;4589004;19;20332;-24
2023/08/09 04:55:44;;;;;;;3.22;1.55;;;20.40;99.90;;;;;;4589921;19;20020;-27
2023/08/09 04:57:16;;;;;;;2.97;1.95;;;20.50;99.90;;;;;;4590648;19;20479;-32
2023/08/09 04:58:47;;;;;;;3.70;1.40;;;20.50;99.90;;;;;;4590962;19;20010;-27
2023/08/09 05:00:21;;;;;;;2.38;1.60;;;20.60;99.90;;;;;;4590549;19;20021;-26
2023/08/09 05:01:52;;;;;;;;;;;20.60;99.90;;;;;;4589952;19;20018;-28
2023/08/09 05:03:24;;;;;;;2.05;1.30;;;20.60;99.90;;;;;;4589955;19;20265;-27
2023/08/09 05:04:56;;;;;;;2.38;1.20;;;20.60;99.90;;;;;;4589492;19;20025;-30
2023/08/09 05:06:27;;;;;;;3.45;1.60;;;20.70;99.90;;;;;;4589905;19;20014;-29
2023/08/09 05:07:59;;;;;;;;;;;20.60;99.90;;;;;;4590669;19;20014;-26
2023/08/09 05:09:31;;;;;;;3.17;1.52;;;20.50;99.90;;;;;;4588997;19;19926;-30
2023/08/09 05:11:21;;;;;;;2.72;1.40;;;20.60;99.90;;;;;;4590047;19;20134;-26
2023/08/09 05:12:53;;;;;;;4.55;1.50;;;20.50;99.90;;;;;;4590626;19;20007;-29
2023/08/09 05:14:25;;;;;;;3.83;1.90;;;20.50;99.90;;;;;;4589926;19;20475;-29
2023/08/09 05:15:57;;;;;;;1.90;1.52;;;20.40;99.90;;;;;;4590473;19;20041;-30
2023/08/09 05:17:28;;;;;;;2.90;1.83;;;20.50;99.90;;;;;;4589062;19;20018;-26
2023/08/09 07:11:59;;;;;;;1.88;1.40;;;16.90;99.90;;;;;;4590951;19;20014;-25
2023/08/09 07:13:30;;;;;;;2.60;1.60;;;16.90;99.90;;;;;;4592285;19;20014;-24
2023/08/09 07:15:08;;;;;;;3.28;1.70;;;16.90;99.90;;;;;;4591764;19;20034;-25
2023/08/09 07:16:40;;;;;;;3.10;1.73;;;16.90;99.90;;;;;;4591022;19;20471;-25
2023/08/09 07:18:12;;;;;;;2.30;1.40;;;16.90;99.90;;;;;;4591358;19;20025;-25
2023/08/09 07:19:44;;;;;;;3.20;1.75;;;16.90;99.90;;;;;;4591318;19;19999;-25
2023/08/09 07:21:16;;;;;;;3.45;1.70;;;16.90;99.90;;;;;;4591619;19;20042;-25
2023/08/09 07:22:52;;;;;;;2.78;1.58;;;16.90;99.90;;;;;;4590790;19;20006;-25
2023/08/09 07:24:23;;;;;;;2.17;1.48;;;16.90;99.90;;;;;;4590851;19;20014;-25
2023/08/09 07:25:56;;;;;;;3.20;1.90;;;17.00;99.90;;;;;;4591547;19;20006;-25
2023/08/09 07:27:28;;;;;;;2.92;1.83;;;17.00;99.90;;;;;;4591937;19;20040;-25
2023/08/09 07:29:00;;;;;;;3.53;1.65;;;17.00;99.90;;;;;;4591113;19;20003;-25
2023/08/09 07:30:33;;;;;;;2.17;1.55;;;17.00;99.90;;;;;;4589207;19;20015;-25
2023/08/09 07:32:04;;;;;;;3.45;1.90;;;17.00;99.90;;;;;;4589554;19;20375;-25
2023/08/09 07:33:35;;;;;;;4.22;2.42;;;17.00;99.90;;;;;;4591902;19;20016;-25
2023/08/09 07:35:08;;;;;;;2.95;2.00;;;17.00;99.90;;;;;;4592030;19;20360;-25
2023/08/09 07:36:40;;;;;;;2.60;2.00;;;17.00;99.90;;;;;;4591039;19;20020;-25
2023/08/09 07:38:11;;;;;;;3.35;2.30;;;17.00;99.90;;;;;;4591553;19;20074;-25
2023/08/09 07:40:07;;;;;;;4.45;2.35;;;17.00;99.90;;;;;;4592279;19;20002;-25
2023/08/09 07:41:38;;;;;;;3.22;2.13;;;17.10;99.90;;;;;;4591440;19;20043;-25
2023/08/09 07:43:09;;;;;;;3.33;2.35;;;17.10;99.90;;;;;;4590858;19;20011;-25
2023/08/09 07:44:41;;;;;;;2.97;2.30;;;17.10;99.90;;;;;;4590909;19;20013;-25
2023/08/09 07:46:27;;;;;;;4.63;2.63;;;17.10;99.90;;;;;;4590990;19;20002;-25
2023/08/09 07:47:59;;;;;;;4.70;2.47;;;17.10;99.90;;;;;;4591617;19;20019;-25
2023/08/09 07:49:31;;;;;;;3.53;2.63;;;17.10;99.90;;;;;;4591875;19;20018;-24
2023/08/09 07:51:03;;;;;;;3.50;2.85;;;17.20;99.90;;;;;;4592295;19;20492;-25
2023/08/09 07:52:35;;;;;;;3.47;2.63;;;17.20;99.90;;;;;;4591959;19;20333;-25
2023/08/09 07:59:50;;;;;;;2.67;2.22;;;17.30;99.90;;;;;;4590347;19;19983;-25
2023/08/09 08:04:06;;;;;;;5.53;3.50;;;17.40;99.90;;;;;;4590556;19;19983;-25
2023/08/09 08:06:16;;;;;;;8.15;5.82;;;17.40;99.90;;;;;;4591009;19;20406;-25
2023/08/09 08:09:54;;;;;;;4.57;3.40;;;17.40;99.90;;;;;;4589912;19;20015;-29
2023/08/09 08:11:26;;;;;;;4.63;3.30;;;17.50;99.90;;;;;;4592383;19;20010;-25
2023/08/09 08:12:58;;;;;;;4.00;2.70;;;17.50;99.90;;;;;;4593541;19;20046;-27
2023/08/09 08:14:30;;;;;;;;;;;17.50;99.90;;;;;;4594158;19;20014;-25
2023/08/09 08:16:04;;;;;;;3.22;2.60;;;17.50;99.90;;;;;;4591756;19;20289;-26
2023/08/09 08:17:36;;;;;;;4.15;3.47;;;17.50;99.90;;;;;;4590381;19;20010;-28
2023/08/09 08:19:10;;;;;;;;;;;17.50;99.90;;;;;;4591297;19;20025;-25
2023/08/09 08:20:42;;;;;;;3.30;2.80;;;17.50;99.90;;;;;;4591190;19;20233;-25
2023/08/09 08:22:14;;;;;;;3.42;2.50;;;17.60;99.90;;;;;;4591567;19;20500;-26
2023/08/09 08:23:46;;;;;;;4.93;3.70;;;17.60;99.90;;;;;;4591191;19;20028;-25
2023/08/09 08:25:19;;;;;;;3.95;3.05;;;17.60;99.90;;;;;;4590877;19;20018;-26
2023/08/09 08:26:53;;;;;;;2.60;2.30;;;17.60;99.90;;;;;;4589494;19;20475;-25
2023/08/09 08:28:25;;;;;;;3.10;2.42;;;17.60;99.90;;;;;;4590308;19;20212;-25
2023/08/09 08:29:58;;;;;;;2.97;2.38;;;17.60;99.90;;;;;;4590158;19;20003;-25
2023/08/09 08:31:32;;;;;;;11.45;8.93;;;17.60;99.90;;;;;;4589459;19;20015;-25
2023/08/09 08:33:05;;;;;;;13.40;10.68;;;17.60;99.90;;;;;;4593193;19;20404;-25
2023/08/09 08:34:37;;;;;;;7.18;5.28;;;17.60;99.90;;;;;;4589753;19;20376;-27
2023/08/09 08:36:08;;;;;;;4.30;3.28;;;17.60;99.90;;;;;;4589677;19;19994;-26
2023/08/09 08:37:40;;;;;;;3.97;2.67;;;17.60;99.90;;;;;;4589324;19;20073;-29
2023/08/09 08:39:14;;;;;;;4.30;2.50;;;17.60;99.90;;;;;;4589286;19;20021;-25
2023/08/09 08:40:45;;;;;;;3.22;2.25;;;17.60;99.90;;;;;;4589680;19;20002;-25
2023/08/09 08:42:18;;;;;;;3.35;2.38;;;17.70;99.90;;;;;;4589110;19;20018;-25
2023/08/09 08:43:49;;;;;;;;;;;17.70;99.90;;;;;;4590990;19;20014;-29
2023/08/09 08:45:22;;;;;;;3.15;2.20;;;17.70;99.90;;;;;;4589909;19;20355;-25
2023/08/09 08:46:58;;;;;;;3.70;2.40;;;17.70;99.90;;;;;;4589731;19;20007;-27
2023/08/09 08:48:32;;;;;;;3.30;2.40;;;17.70;99.90;;;;;;4589376;19;20006;-28
2023/08/09 08:50:05;;;;;;;2.83;2.22;;;17.70;99.90;;;;;;4588557;19;20011;-26
2023/08/09 08:51:37;;;;;;;3.33;2.10;;;17.70;99.90;;;;;;4590214;19;20507;-29
2023/08/09 08:53:10;;;;;;;4.53;2.20;;;17.70;99.90;;;;;;4589425;19;20348;-30
2023/08/09 08:54:41;;;;;;;3.20;1.88;;;17.70;99.90;;;;;;4589332;19;19999;-25
2023/08/09 08:56:14;;;;;;;3.38;2.58;;;17.70;99.90;;;;;;4589160;19;20034;-26
2023/08/09 08:57:47;;;;;;;3.78;2.20;;;17.80;99.90;;;;;;4589426;19;20464;-29
2023/08/09 08:59:19;;;;;;;3.13;2.30;;;17.70;99.90;;;;;;4589977;19;20002;-31
2023/08/09 09:00:51;;;;;;;2.92;2.13;;;17.70;99.90;;;;;;4589114;19;20014;-29
2023/08/09 09:02:22;;;;;;;3.28;1.98;;;17.70;99.90;;;;;;4589362;19;20021;-26
2023/08/09 09:03:54;;;;;;;2.60;1.95;;;17.70;99.90;;;;;;4590289;19;20042;-28
2023/08/09 09:05:26;;;;;;;;;;;17.70;99.90;;;;;;4592081;19;20039;-27
2023/08/09 09:06:57;;;;;;;3.58;1.90;;;17.80;99.90;;;;;;4590137;19;19938;-25
2023/08/09 09:08:28;;;;;;;2.83;1.70;;;17.70;99.90;;;;;;4589134;19;20021;-29
2023/08/09 09:10:03;;;;;;;2.92;2.08;;;17.70;99.90;;;;;;4589245;19;20034;-31
2023/08/09 09:11:35;;;;;;;2.05;1.60;;;17.70;99.90;;;;;;4588284;19;20112;-29
2023/08/09 09:13:07;;;;;;;2.70;1.92;;;17.70;99.90;;;;;;4588891;19;20498;-25
2023/08/09 09:14:39;;;;;;;2.85;1.75;;;17.70;99.90;;;;;;4589479;19;20015;-27
2023/08/09 09:16:10;;;;;;;2.05;1.60;;;17.70;99.90;;;;;;4590399;19;20028;-28
2023/08/09 09:17:45;;;;;;;3.33;1.92;;;17.70;99.90;;;;;;4590361;19;20592;-29
2023/08/09 09:19:17;;;;;;;3.90;2.10;;;17.70;99.90;;;;;;4588652;19;20019;-28
2023/08/09 09:20:48;;;;;;;2.90;1.92;;;17.70;99.90;;;;;;4589646;19;20021;-25
2023/08/09 09:22:29;;;;;;;3.20;1.80;;;17.70;99.90;;;;;;4588898;19;20007;-26
2023/08/09 09:24:05;;;;;;;2.72;2.15;;;17.70;99.90;;;;;;4590596;19;20023;-28
2023/08/09 09:25:36;;;;;;;3.67;2.20;;;17.70;99.90;;;;;;4588508;19;20006;-26
2023/08/09 09:27:09;;;;;;;2.53;2.10;;;17.70;99.90;;;;;;4589040;19;20018;-29
2023/08/09 09:28:44;;;;;;;3.67;2.47;;;17.70;99.90;;;;;;4589466;19;20090;-25
2023/08/09 09:30:15;;;;;;;2.53;1.90;;;17.70;99.90;;;;;;4589879;19;20026;-27
2023/08/09 09:31:48;;;;;;;3.47;2.10;;;17.70;99.90;;;;;;4588592;19;20018;-25
2023/08/09 09:33:20;;;;;;;4.20;2.20;;;17.70;99.90;;;;;;4588528;19;20025;-26
2023/08/09 09:34:51;;;;;;;;;;;17.70;99.90;;;;;;4589623;19;20006;-25
2023/08/09 09:36:22;;;;;;;2.55;2.05;;;17.70;99.90;;;;;;4589486;19;20359;-26
2023/08/09 09:37:54;;;;;;;;;;;17.70;99.90;;;;;;4590569;19;20019;-25
2023/08/09 09:39:27;;;;;;;4.28;2.25;;;17.70;99.90;;;;;;4589028;19;19910;-25
2023/08/09 09:41:00;;;;;;;3.47;2.15;;;17.70;99.90;;;;;;4588926;19;20018;-25
2023/08/09 09:42:32;;;;;;;4.32;2.70;;;17.70;99.90;;;;;;4589136;19;20011;-29
2023/08/09 09:44:05;;;;;;;4.95;2.90;;;17.70;99.90;;;;;;4589765;19;20405;-31
2023/08/09 09:45:36;;;;;;;4.75;2.50;;;17.70;99.90;;;;;;4589000;19;20010;-25
2023/08/09 09:47:10;;;;;;;2.92;2.15;;;17.70;99.90;;;;;;4588534;19;20082;-25
2023/08/09 09:48:47;;;;;;;3.13;1.95;;;17.70;99.90;;;;;;4588311;19;20484;-28
2023/08/09 09:50:23;;;;;;;2.65;1.80;;;17.70;99.90;;;;;;4588574;19;20019;-27
2023/08/09 09:51:56;;;;;;;4.60;3.00;;;17.80;99.90;;;;;;4589822;19;20025;-26
2023/08/09 09:53:27;;;;;;;3.42;2.10;;;17.80;99.90;;;;;;4588564;19;20012;-30
2023/08/09 09:55:00;;;;;;;3.40;2.20;;;17.80;99.90;;;;;;4590440;19;20014;-26
2023/08/09 09:56:33;;;;;;;2.95;2.08;;;17.80;99.90;;;;;;4593621;19;20015;-28
2023/08/09 09:58:05;;;;;;;3.20;2.00;;;17.80;99.90;;;;;;4594502;19;20015;-24
2023/08/09 09:59:39;;;;;;;3.83;2.03;;;17.80;99.90;;;;;;4593030;19;20003;-29
2023/08/09 10:01:16;;;;;;;3.50;1.92;;;17.80;99.90;;;;;;4592789;19;20437;-25
2023/08/09 10:02:50;;;;;;;2.30;1.70;;;17.80;99.90;;;;;;4593076;19;20015;-25
2023/08/09 10:04:21;;;;;;;2.75;1.83;;;17.90;99.90;;;;;;4594038;19;20517;-31
2023/08/09 10:05:53;;;;;;;2.58;1.63;;;17.90;99.90;;;;;;4592750;19;20031;-25
2023/08/09 10:07:30;;;;;;;1.90;1.50;;;17.90;99.90;;;;;;4592667;19;20467;-30
2023/08/09 10:39:19;;;;;;;2.80;1.85;;;17.80;99.90;;;;;;4591704;19;20473;-25
2023/08/09 10:40:52;;;;;;;2.60;1.83;;;17.80;99.90;;;;;;4591944;19;20007;-26
2023/08/09 10:42:26;;;;;;;4.35;2.00;;;17.80;99.90;;;;;;4592023;19;20013;-29
2023/08/09 10:44:03;;;;;;;2.42;1.75;;;17.80;99.90;;;;;;4591998;19;20014;-31
2023/08/09 10:45:37;;;;;;;2.97;2.20;;;17.80;99.90;;;;;;4592138;19;20047;-27
2023/08/09 10:47:26;;;;;;;3.55;1.90;;;17.90;99.90;;;;;;4591625;19;20011;-25
2023/08/09 10:49:03;;;;;;;3.85;2.20;;;17.90;99.90;;;;;;4593188;19;20456;-28
2023/08/09 10:50:35;;;;;;;2.42;1.80;;;17.90;99.90;;;;;;4591094;19;20108;-25
2023/08/09 10:52:29;;;;;;;2.53;1.73;;;17.90;99.90;;;;;;4592116;19;20011;-25
2023/08/09 10:54:01;;;;;;;4.18;2.38;;;17.90;99.90;;;;;;4593113;19;20021;-27
2023/08/09 10:55:33;;;;;;;3.85;2.60;;;17.90;99.90;;;;;;4593079;19;20010;-25
2023/08/09 10:57:10;;;;;;;5.43;2.88;;;17.90;99.90;;;;;;4593028;19;20006;-25
2023/08/09 10:58:44;;;;;;;4.13;2.53;;;17.90;99.90;;;;;;4591947;19;20011;-28
2023/08/09 11:00:16;;;;;;;4.03;2.35;;;17.90;99.90;;;;;;4592758;19;20018;-31
2023/08/09 11:01:48;;;;;;;4.28;2.20;;;17.90;99.90;;;;;;4592940;19;20007;-25
2023/08/09 11:03:23;;;;;;;3.65;2.40;;;18.00;99.90;;;;;;4591796;19;20011;-25
2023/08/09 11:04:56;;;;;;;3.38;2.10;;;18.00;99.90;;;;;;4591971;19;20048;-25
2023/08/09 11:06:39;;;;;;;2.92;2.17;;;18.00;99.90;;;;;;4591358;19;20023;-25
2023/08/09 11:08:16;;;;;;;2.53;1.83;;;18.10;99.90;;;;;;4593268;19;19999;-25
2023/08/09 11:09:47;;;;;;;2.88;2.00;;;18.10;99.90;;;;;;4592479;19;20534;-25